createdAt,value
2023-03-27T00:00:22.975Z,91.72
2023-03-27T00:01:22.914Z,91.83
2023-03-27T00:02:23.181Z,92.03
2023-03-27T00:03:23.072Z,91.93
2023-03-27T00:04:22.882Z,91.72
2023-03-27T00:05:22.859Z,91.83
2023-03-27T00:06:22.855Z,91.83
2023-03-27T00:07:22.881Z,91.68
2023-03-27T00:08:22.847Z,91.93
2023-03-27T00:09:22.830Z,91.83
2023-03-27T00:10:22.969Z,91.83
2023-03-27T00:11:22.788Z,91.72
2023-03-27T00:12:22.820Z,91.72
2023-03-27T00:13:22.768Z,91.83
2023-03-27T00:14:22.786Z,91.93
2023-03-27T00:15:22.745Z,92.03
2023-03-27T00:16:22.799Z,92.14
2023-03-27T00:17:22.728Z,92.25
2023-03-27T00:18:22.717Z,92.35
2023-03-27T00:19:22.711Z,92.46
2023-03-27T00:20:22.727Z,92.46
2023-03-27T00:21:22.736Z,92.46
2023-03-27T00:22:22.692Z,92.46
2023-03-27T00:23:22.672Z,92.35
2023-03-27T00:24:22.668Z,92.46
2023-03-27T00:25:22.656Z,92.60
2023-03-27T00:26:22.668Z,92.81
2023-03-27T00:27:22.616Z,92.81
2023-03-27T00:28:22.622Z,92.91
2023-03-27T00:29:22.620Z,92.66
2023-03-27T00:30:22.605Z,92.81
2023-03-27T00:31:22.629Z,92.87
2023-03-27T00:32:22.600Z,93.02
2023-03-27T00:33:22.557Z,93.02
2023-03-27T00:34:22.602Z,93.02
2023-03-27T00:35:22.634Z,93.02
2023-03-27T00:36:22.537Z,93.02
2023-03-27T00:37:22.520Z,93.23
2023-03-27T00:38:22.556Z,93.44
2023-03-27T00:39:22.484Z,93.44
2023-03-27T00:40:22.499Z,93.65
2023-03-27T00:41:22.576Z,93.65
2023-03-27T00:42:22.476Z,93.75
2023-03-27T00:43:22.495Z,93.75
2023-03-27T00:44:23.146Z,93.85
2023-03-27T00:45:22.431Z,93.85
2023-03-27T00:46:22.475Z,93.96
2023-03-27T00:47:22.396Z,93.96
2023-03-27T00:48:22.409Z,94.06
2023-03-27T00:49:22.401Z,94.10
2023-03-27T00:50:22.633Z,94.21
2023-03-27T00:51:22.382Z,94.42
2023-03-27T00:52:22.411Z,94.42
2023-03-27T00:53:22.358Z,94.42
2023-03-27T00:54:22.338Z,94.42
2023-03-27T00:55:22.337Z,94.42
2023-03-27T00:56:22.573Z,94.31
2023-03-27T00:57:22.295Z,94.31
2023-03-27T00:58:22.293Z,94.42
2023-03-27T00:59:22.267Z,94.42
2023-03-27T01:00:22.268Z,94.42
2023-03-27T01:01:22.282Z,94.42
2023-03-27T01:02:22.332Z,94.63
2023-03-27T01:03:22.328Z,94.42
2023-03-27T01:04:22.228Z,94.52
2023-03-27T01:05:22.207Z,94.52
2023-03-27T01:06:22.192Z,94.63
2023-03-27T01:07:22.213Z,94.73
2023-03-27T01:08:22.176Z,94.84
2023-03-27T01:09:22.150Z,94.73
2023-03-27T01:10:22.170Z,94.73
2023-03-27T01:11:22.132Z,94.94
2023-03-27T01:12:22.140Z,95.04
2023-03-27T01:13:22.130Z,95.04
2023-03-27T01:14:22.102Z,94.94
2023-03-27T01:15:22.079Z,95.04
2023-03-27T01:16:22.205Z,95.04
2023-03-27T01:17:22.160Z,95.15
2023-03-27T01:18:22.066Z,95.25
2023-03-27T01:19:22.052Z,95.46
2023-03-27T01:20:22.048Z,95.46
2023-03-27T01:21:22.024Z,95.46
2023-03-27T01:22:22.025Z,95.67
2023-03-27T01:23:59.059Z,95.67
2023-03-27T01:24:23.001Z,95.56
2023-03-27T01:25:21.975Z,95.56
2023-03-27T01:26:36.108Z,95.56
2023-03-27T01:27:22.946Z,95.61
2023-03-27T01:28:21.963Z,95.82
2023-03-27T01:29:21.980Z,95.78
2023-03-27T01:30:22.709Z,95.88
2023-03-27T01:31:21.959Z,95.82
2023-03-27T01:32:21.967Z,95.82
2023-03-27T01:33:21.907Z,95.92
2023-03-27T01:34:21.903Z,96.03
2023-03-27T01:35:21.881Z,96.03
2023-03-27T01:36:21.870Z,96.03
2023-03-27T01:37:21.896Z,96.13
2023-03-27T01:38:21.862Z,96.23
2023-03-27T01:39:21.829Z,96.34
2023-03-27T01:40:21.856Z,96.34
2023-03-27T01:41:21.801Z,96.23
2023-03-27T01:42:21.895Z,96.23
2023-03-27T01:43:21.782Z,96.23
2023-03-27T01:44:21.797Z,96.34
2023-03-27T01:45:21.766Z,96.34
2023-03-27T01:46:21.805Z,96.34
2023-03-27T01:47:21.824Z,96.44
2023-03-27T01:48:21.724Z,96.44
2023-03-27T01:49:21.710Z,96.34
2023-03-27T01:50:21.730Z,96.34
2023-03-27T01:51:21.697Z,96.34
2023-03-27T01:52:21.706Z,96.34
2023-03-27T01:53:21.720Z,96.44
2023-03-27T01:54:21.702Z,96.44
2023-03-27T01:55:21.659Z,96.55
2023-03-27T01:56:21.654Z,96.66
2023-03-27T01:57:21.649Z,96.66
2023-03-27T01:58:21.638Z,96.76
2023-03-27T01:59:21.625Z,96.91
2023-03-27T02:00:21.586Z,96.91
2023-03-27T02:01:21.620Z,96.91
2023-03-27T02:02:21.615Z,96.91
2023-03-27T02:03:21.602Z,97.01
2023-03-27T02:04:21.590Z,97.01
2023-03-27T02:05:21.530Z,97.01
2023-03-27T02:06:21.543Z,97.01
2023-03-27T02:07:21.514Z,97.01
2023-03-27T02:08:21.526Z,97.11
2023-03-27T02:09:21.516Z,97.11
2023-03-27T02:10:21.482Z,97.11
2023-03-27T02:11:21.758Z,97.11
2023-03-27T02:12:21.483Z,97.01
2023-03-27T02:13:21.474Z,97.11
2023-03-27T02:14:21.447Z,97.32
2023-03-27T02:15:23.833Z,97.32
2023-03-27T02:16:21.520Z,97.53
2023-03-27T02:17:21.447Z,97.64
2023-03-27T02:18:21.414Z,97.64
2023-03-27T02:19:21.971Z,97.64
2023-03-27T02:20:21.391Z,97.64
2023-03-27T02:21:21.354Z,97.64
2023-03-27T02:22:38.050Z,97.74
2023-03-27T02:23:22.329Z,97.74
2023-03-27T02:24:21.358Z,97.74
2023-03-27T02:25:21.326Z,97.85
2023-03-27T02:26:21.314Z,97.85
2023-03-27T02:27:21.292Z,97.95
2023-03-27T02:28:21.304Z,98.16
2023-03-27T02:29:21.267Z,98.16
2023-03-27T02:30:21.268Z,98.26
2023-03-27T02:31:32.480Z,98.37
2023-03-27T02:32:22.425Z,98.47
2023-03-27T02:33:21.237Z,98.58
2023-03-27T02:34:21.222Z,98.58
2023-03-27T02:35:21.227Z,98.58
2023-03-27T02:36:21.230Z,98.58
2023-03-27T02:37:21.168Z,98.58
2023-03-27T02:38:21.176Z,98.68
2023-03-27T02:39:21.313Z,98.79
2023-03-27T02:40:21.179Z,98.89
2023-03-27T02:41:21.149Z,98.99
2023-03-27T02:42:21.181Z,98.99
2023-03-27T02:43:21.104Z,98.99
2023-03-27T02:44:21.121Z,99.10
2023-03-27T02:45:21.086Z,99.10
2023-03-27T02:46:21.148Z,99.20
2023-03-27T02:47:21.080Z,99.20
2023-03-27T02:48:21.066Z,99.20
2023-03-27T02:49:21.055Z,99.10
2023-03-27T02:50:21.041Z,99.10
2023-03-27T02:51:21.043Z,99.20
2023-03-27T02:52:21.026Z,99.20
2023-03-27T02:53:21.008Z,99.10
2023-03-27T02:54:21.001Z,99.10
2023-03-27T02:55:21.010Z,99.10
2023-03-27T02:56:20.999Z,99.20
2023-03-27T02:57:21.827Z,99.31
2023-03-27T02:58:20.995Z,99.35
2023-03-27T02:59:20.965Z,99.41
2023-03-27T03:00:20.962Z,99.46
2023-03-27T03:01:20.980Z,99.52
2023-03-27T03:02:20.995Z,99.52
2023-03-27T03:03:20.938Z,99.41
2023-03-27T03:04:20.941Z,99.46
2023-03-27T03:05:20.910Z,99.56
2023-03-27T03:06:20.887Z,99.56
2023-03-27T03:07:20.890Z,99.56
2023-03-27T03:08:20.875Z,99.66
2023-03-27T03:09:20.829Z,99.66
2023-03-27T03:10:20.836Z,99.66
2023-03-27T03:11:20.799Z,99.66
2023-03-27T03:12:20.803Z,99.66
2023-03-27T03:13:20.798Z,99.66
2023-03-27T03:14:20.792Z,99.56
2023-03-27T03:15:20.785Z,99.56
2023-03-27T03:16:20.781Z,99.66
2023-03-27T03:17:20.751Z,99.66
2023-03-27T03:18:20.747Z,99.66
2023-03-27T03:19:20.785Z,99.66
2023-03-27T03:20:20.738Z,99.66
2023-03-27T03:21:20.710Z,99.66
2023-03-27T03:22:20.686Z,99.77
2023-03-27T03:23:20.680Z,99.88
2023-03-27T03:24:20.656Z,99.99
2023-03-27T03:25:20.743Z,99.99
2023-03-27T03:26:20.635Z,99.99
2023-03-27T03:27:20.638Z,99.98
2023-03-27T03:28:20.623Z,99.99
2023-03-27T03:29:20.646Z,99.99
2023-03-27T03:30:20.606Z,99.99
2023-03-27T03:31:20.639Z,99.99
2023-03-27T03:32:20.565Z,99.99
2023-03-27T03:33:20.554Z,99.99
2023-03-27T03:34:20.558Z,99.99
2023-03-27T03:35:20.572Z,99.99
2023-03-27T03:36:20.547Z,99.99
2023-03-27T03:37:20.542Z,99.99
2023-03-27T03:38:20.490Z,99.99
2023-03-27T03:39:20.808Z,99.99
2023-03-27T03:40:20.516Z,99.99
2023-03-27T03:41:20.492Z,99.99
2023-03-27T03:42:22.270Z,99.99
2023-03-27T03:43:20.470Z,99.99
2023-03-27T03:44:20.439Z,99.99
2023-03-27T03:45:20.440Z,99.99
2023-03-27T03:46:20.468Z,99.99
2023-03-27T03:47:20.418Z,99.99
2023-03-27T03:48:20.380Z,99.99
2023-03-27T03:49:20.386Z,99.99
2023-03-27T03:50:20.386Z,99.99
2023-03-27T03:51:20.351Z,99.99
2023-03-27T03:52:20.352Z,99.99
2023-03-27T03:53:20.337Z,99.99
2023-03-27T03:54:20.316Z,99.99
2023-03-27T03:55:20.355Z,99.99
2023-03-27T03:56:20.448Z,99.99
2023-03-27T03:57:20.334Z,99.99
2023-03-27T03:58:20.278Z,99.99
2023-03-27T03:59:20.281Z,99.99
2023-03-27T04:00:20.257Z,99.99
2023-03-27T04:01:20.264Z,99.99
2023-03-27T04:02:20.316Z,99.99
2023-03-27T04:03:20.338Z,99.99
2023-03-27T04:04:20.201Z,99.99
2023-03-27T04:05:20.212Z,99.99
2023-03-27T04:06:20.506Z,99.99
2023-03-27T04:07:20.192Z,99.99
2023-03-27T04:08:20.169Z,99.99
2023-03-27T04:09:20.158Z,99.99
2023-03-27T04:10:20.142Z,99.99
2023-03-27T04:11:20.143Z,99.99
2023-03-27T04:12:20.128Z,99.99
2023-03-27T04:13:20.111Z,99.99
2023-03-27T04:14:20.123Z,99.99
2023-03-27T04:15:20.105Z,99.99
2023-03-27T04:16:20.168Z,99.99
2023-03-27T04:17:20.084Z,99.99
2023-03-27T04:18:20.154Z,99.99
2023-03-27T04:19:20.047Z,99.99
2023-03-27T04:20:20.036Z,99.99
2023-03-27T04:21:20.047Z,99.99
2023-03-27T04:22:20.027Z,99.99
2023-03-27T04:23:20.045Z,99.99
2023-03-27T04:24:19.979Z,99.99
2023-03-27T04:25:19.990Z,99.99
2023-03-27T04:26:20.009Z,99.99
2023-03-27T04:27:19.966Z,99.99
2023-03-27T04:28:19.945Z,99.99
2023-03-27T04:29:19.968Z,99.99
2023-03-27T04:30:19.931Z,99.99
2023-03-27T04:31:19.969Z,99.99
2023-03-27T04:32:19.907Z,99.99
2023-03-27T04:33:19.905Z,99.99
2023-03-27T04:34:19.996Z,99.99
2023-03-27T04:35:19.876Z,99.99
2023-03-27T04:36:19.924Z,99.99
2023-03-27T04:37:23.515Z,99.99
2023-03-27T04:38:19.860Z,99.99
2023-03-27T04:39:19.823Z,99.99
2023-03-27T04:40:19.806Z,99.99
2023-03-27T04:41:19.816Z,99.99
2023-03-27T04:42:19.775Z,99.99
2023-03-27T04:43:19.806Z,99.99
2023-03-27T04:44:19.806Z,99.99
2023-03-27T04:45:19.770Z,99.99
2023-03-27T04:46:19.826Z,99.99
2023-03-27T04:47:19.749Z,99.99
2023-03-27T04:48:19.724Z,99.99
2023-03-27T04:49:19.740Z,99.99
2023-03-27T04:50:19.712Z,99.99
2023-03-27T04:51:19.704Z,99.99
2023-03-27T04:52:19.723Z,99.99
2023-03-27T04:53:19.672Z,99.99
2023-03-27T04:54:19.694Z,99.99
2023-03-27T04:55:19.697Z,99.99
2023-03-27T04:56:19.641Z,99.99
2023-03-27T04:57:19.693Z,99.99
2023-03-27T04:58:19.624Z,99.99
2023-03-27T04:59:19.650Z,99.99
2023-03-27T05:00:19.792Z,99.99
2023-03-27T05:01:19.628Z,99.99
2023-03-27T05:02:19.568Z,99.99
2023-03-27T05:03:19.632Z,99.99
2023-03-27T05:04:19.567Z,99.99
2023-03-27T05:05:19.548Z,99.99
2023-03-27T05:06:19.528Z,99.99
2023-03-27T05:07:19.520Z,99.99
2023-03-27T05:08:19.537Z,99.99
2023-03-27T05:09:19.509Z,99.99
2023-03-27T05:10:21.886Z,99.99
2023-03-27T05:11:19.481Z,99.99
2023-03-27T05:12:19.453Z,99.99
2023-03-27T05:13:19.476Z,99.99
2023-03-27T05:14:19.445Z,99.99
2023-03-27T05:15:19.432Z,99.99
2023-03-27T05:16:19.455Z,99.99
2023-03-27T05:17:19.408Z,99.99
2023-03-27T05:18:19.417Z,99.99
2023-03-27T05:19:19.413Z,99.99
2023-03-27T05:20:19.358Z,99.99
2023-03-27T05:21:19.386Z,99.99
2023-03-27T05:22:19.350Z,99.99
2023-03-27T05:23:19.347Z,99.99
2023-03-27T05:24:19.388Z,99.99
2023-03-27T05:25:19.352Z,99.99
2023-03-27T05:26:19.311Z,99.99
2023-03-27T05:27:19.322Z,99.99
2023-03-27T05:28:19.958Z,99.99
2023-03-27T05:29:19.318Z,99.99
2023-03-27T05:30:19.281Z,99.99
2023-03-27T05:31:19.322Z,99.99
2023-03-27T05:32:19.242Z,99.99
2023-03-27T05:33:19.224Z,99.99
2023-03-27T05:34:19.234Z,99.99
2023-03-27T05:35:19.234Z,99.99
2023-03-27T05:36:19.212Z,99.99
2023-03-27T05:37:19.187Z,99.99
2023-03-27T05:38:19.160Z,99.99
2023-03-27T05:39:19.174Z,99.99
2023-03-27T05:40:19.132Z,99.99
2023-03-27T05:41:19.152Z,99.99
2023-03-27T05:42:19.185Z,99.99
2023-03-27T05:43:19.131Z,99.99
2023-03-27T05:44:19.111Z,99.99
2023-03-27T05:45:19.147Z,99.99
2023-03-27T05:46:20.906Z,99.99
2023-03-27T05:47:19.086Z,99.99
2023-03-27T05:48:19.082Z,99.99
2023-03-27T05:49:19.058Z,99.99
2023-03-27T05:50:19.023Z,99.99
2023-03-27T05:51:19.032Z,99.99
2023-03-27T05:52:19.021Z,99.99
2023-03-27T05:53:19.007Z,99.99
2023-03-27T05:54:19.028Z,99.99
2023-03-27T05:55:18.993Z,99.99
2023-03-27T05:56:18.961Z,99.99
2023-03-27T05:57:19.012Z,99.99
2023-03-27T05:58:18.981Z,99.99
2023-03-27T05:59:18.933Z,99.99
2023-03-27T06:00:18.936Z,99.99
2023-03-27T06:01:18.926Z,99.99
2023-03-27T06:02:21.285Z,99.99
2023-03-27T06:03:19.087Z,99.99
2023-03-27T06:04:18.890Z,99.99
2023-03-27T06:05:18.879Z,99.99
2023-03-27T06:06:18.854Z,99.99
2023-03-27T06:07:18.871Z,99.99
2023-03-27T06:08:18.828Z,99.99
2023-03-27T06:09:18.840Z,99.99
2023-03-27T06:10:18.816Z,99.99
2023-03-27T06:11:18.811Z,99.99
2023-03-27T06:12:18.828Z,99.99
2023-03-27T06:13:18.819Z,99.99
2023-03-27T06:14:18.778Z,99.99
2023-03-27T06:15:18.774Z,99.99
2023-03-27T06:16:18.763Z,99.99
2023-03-27T06:17:18.752Z,99.99
2023-03-27T06:18:18.721Z,99.99
2023-03-27T06:19:18.805Z,99.99
2023-03-27T06:20:18.701Z,99.99
2023-03-27T06:21:18.696Z,99.99
2023-03-27T06:22:18.681Z,99.99
2023-03-27T06:23:18.686Z,99.99
2023-03-27T06:24:18.694Z,99.99
2023-03-27T06:25:18.686Z,99.99
2023-03-27T06:26:18.627Z,99.99
2023-03-27T06:27:18.667Z,99.99
2023-03-27T06:28:18.631Z,99.99
2023-03-27T06:29:18.632Z,99.99
2023-03-27T06:30:18.644Z,99.99
2023-03-27T06:31:18.630Z,99.99
2023-03-27T06:32:18.576Z,99.99
2023-03-27T06:33:18.577Z,99.99
2023-03-27T06:34:18.571Z,99.99
2023-03-27T06:35:18.569Z,99.99
2023-03-27T06:36:18.574Z,99.99
2023-03-27T06:37:18.581Z,99.99
2023-03-27T06:38:18.504Z,99.93
2023-03-27T06:39:18.508Z,99.83
2023-03-27T06:40:18.478Z,99.93
2023-03-27T06:41:18.516Z,99.89
2023-03-27T06:42:18.463Z,99.79
2023-03-27T06:43:18.452Z,99.68
2023-03-27T06:44:18.435Z,99.57
2023-03-27T06:45:18.429Z,99.57
2023-03-27T06:46:18.441Z,99.57
2023-03-27T06:47:18.427Z,99.53
2023-03-27T06:48:22.059Z,99.43
2023-03-27T06:49:18.386Z,99.22
2023-03-27T06:50:18.383Z,99.01
2023-03-27T06:51:18.358Z,98.69
2023-03-27T06:52:18.334Z,98.69
2023-03-27T06:54:18.327Z,98.65
2023-03-27T06:55:18.318Z,98.65
2023-03-27T06:56:18.292Z,98.75
2023-03-27T06:57:18.340Z,98.65
2023-03-27T06:58:18.306Z,98.34
2023-03-27T06:59:18.283Z,98.13
2023-03-27T07:00:18.269Z,98.23
2023-03-27T07:01:18.277Z,98.08
2023-03-27T07:02:18.256Z,97.88
2023-03-27T07:03:18.314Z,97.77
2023-03-27T07:04:18.232Z,97.77
2023-03-27T07:05:18.204Z,97.67
2023-03-27T07:06:18.210Z,97.46
2023-03-27T07:07:18.210Z,97.46
2023-03-27T07:08:24.034Z,97.31
2023-03-27T07:09:19.170Z,97.41
2023-03-27T07:10:18.152Z,97.52
2023-03-27T07:11:18.548Z,97.41
2023-03-27T07:12:18.129Z,97.20
2023-03-27T07:13:18.116Z,97.10
2023-03-27T07:14:18.107Z,96.85
2023-03-27T07:15:18.094Z,96.53
2023-03-27T07:16:18.121Z,96.53
2023-03-27T07:17:18.067Z,96.53
2023-03-27T07:18:18.143Z,96.33
2023-03-27T07:19:18.033Z,95.76
2023-03-27T07:20:18.080Z,95.14
2023-03-27T07:21:18.009Z,94.72
2023-03-27T07:22:18.038Z,94.51
2023-03-27T07:23:18.014Z,94.51
2023-03-27T07:24:18.006Z,94.16
2023-03-27T07:25:17.968Z,94.16
2023-03-27T07:26:17.965Z,94.16
2023-03-27T07:27:17.960Z,94.26
2023-03-27T07:28:17.946Z,93.64
2023-03-27T07:29:17.950Z,92.86
2023-03-27T07:30:17.924Z,92.76
2023-03-27T07:31:32.577Z,92.45
2023-03-27T07:32:29.566Z,91.83
2023-03-27T07:33:18.980Z,91.72
2023-03-27T07:34:17.986Z,91.72
2023-03-27T07:35:17.863Z,92.10
2023-03-27T07:36:17.856Z,91.16
2023-03-27T07:37:17.867Z,90.85
2023-03-27T07:38:17.827Z,90.64
2023-03-27T07:39:17.828Z,90.85
2023-03-27T07:40:19.929Z,91.16
2023-03-27T07:41:17.817Z,91.43
2023-03-27T07:42:17.794Z,91.33
2023-03-27T07:43:17.772Z,90.70
2023-03-27T07:44:17.770Z,90.39
2023-03-27T07:45:17.783Z,90.08
2023-03-27T07:46:17.791Z,89.15
2023-03-27T07:47:17.720Z,89.00
2023-03-27T07:48:17.735Z,89.42
2023-03-27T07:49:17.717Z,88.90
2023-03-27T07:50:17.705Z,88.17
2023-03-27T07:51:17.748Z,87.96
2023-03-27T07:52:17.685Z,88.07
2023-03-27T07:53:34.252Z,88.07
2023-03-27T07:54:18.653Z,87.65
2023-03-27T07:55:17.632Z,87.24
2023-03-27T07:56:17.664Z,87.13
2023-03-27T07:57:17.937Z,87.34
2023-03-27T07:58:17.765Z,87.86
2023-03-27T07:59:17.624Z,88.38
2023-03-27T08:00:17.597Z,87.92
2023-03-27T08:01:17.578Z,87.61
2023-03-27T08:02:17.582Z,87.09
2023-03-27T08:03:17.711Z,86.47
2023-03-27T08:04:17.623Z,87.09
2023-03-27T08:05:17.531Z,87.05
2023-03-27T08:06:17.530Z,87.37
2023-03-27T08:07:17.549Z,86.54
2023-03-27T08:08:17.519Z,86.22
2023-03-27T08:09:17.499Z,86.85
2023-03-27T08:10:17.478Z,87.12
2023-03-27T08:11:29.584Z,85.46
2023-03-27T08:12:18.464Z,85.87
2023-03-27T08:13:17.536Z,86.18
2023-03-27T08:14:17.454Z,86.49
2023-03-27T08:15:17.422Z,87.01
2023-03-27T08:16:17.560Z,86.60
2023-03-27T08:17:18.800Z,86.08
2023-03-27T08:18:17.469Z,86.08
2023-03-27T08:19:17.484Z,86.49
2023-03-27T08:20:17.359Z,85.94
2023-03-27T08:21:17.370Z,85.94
2023-03-27T08:22:17.357Z,85.21
2023-03-27T08:23:17.322Z,84.59
2023-03-27T08:24:17.310Z,84.80
2023-03-27T08:25:17.315Z,85.73
2023-03-27T08:26:17.316Z,85.63
2023-03-27T08:27:17.265Z,84.90
2023-03-27T08:28:17.296Z,85.21
2023-03-27T08:29:17.271Z,84.07
2023-03-27T08:30:17.496Z,84.38
2023-03-27T08:31:17.297Z,84.38
2023-03-27T08:32:17.223Z,84.75
2023-03-27T08:33:17.268Z,84.34
2023-03-27T08:34:17.206Z,83.93
2023-03-27T08:35:17.240Z,82.79
2023-03-27T08:36:17.177Z,82.89
2023-03-27T08:37:17.177Z,82.17
2023-03-27T08:38:26.101Z,82.58
2023-03-27T08:39:18.158Z,83.00
2023-03-27T08:40:17.160Z,82.79
2023-03-27T08:41:17.140Z,82.17
2023-03-27T08:42:18.941Z,82.89
2023-03-27T08:43:17.107Z,83.41
2023-03-27T08:44:17.123Z,82.13
2023-03-27T08:45:17.077Z,82.23
2023-03-27T08:46:17.166Z,81.30
2023-03-27T08:47:17.056Z,81.71
2023-03-27T08:48:17.421Z,81.92
2023-03-27T08:49:17.036Z,83.23
2023-03-27T08:50:17.042Z,82.13
2023-03-27T08:51:17.046Z,81.92
2023-03-27T08:52:17.010Z,82.86
2023-03-27T08:53:16.991Z,82.95
2023-03-27T08:54:16.987Z,83.26
2023-03-27T08:55:16.956Z,82.75
2023-03-27T08:56:16.993Z,82.75
2023-03-27T08:57:16.964Z,83.44
2023-03-27T08:58:16.955Z,82.09
2023-03-27T08:59:17.606Z,80.85
2023-03-27T09:00:16.935Z,81.26
2023-03-27T09:01:16.961Z,81.57
2023-03-27T09:02:16.923Z,80.95
2023-03-27T09:03:17.064Z,79.91
2023-03-27T09:04:16.867Z,80.43
2023-03-27T09:05:16.839Z,81.68
2023-03-27T09:06:16.840Z,80.43
2023-03-27T09:07:16.820Z,81.05
2023-03-27T09:08:16.815Z,80.95
2023-03-27T09:09:16.834Z,81.16
2023-03-27T09:10:16.845Z,80.43
2023-03-27T09:11:16.799Z,80.02
2023-03-27T09:12:16.783Z,78.36
2023-03-27T09:13:16.769Z,78.47
2023-03-27T09:14:16.753Z,79.71
2023-03-27T09:15:16.767Z,80.54
2023-03-27T09:16:16.793Z,80.95
2023-03-27T09:17:16.727Z,81.02
2023-03-27T09:18:16.718Z,79.81
2023-03-27T09:19:16.701Z,79.81
2023-03-27T09:20:16.731Z,79.40
2023-03-27T09:21:16.679Z,80.43
2023-03-27T09:22:16.657Z,79.50
2023-03-27T09:23:17.443Z,79.19
2023-03-27T09:24:16.639Z,80.02
2023-03-27T09:25:16.638Z,79.40
2023-03-27T09:26:16.662Z,79.09
2023-03-27T09:27:16.590Z,78.57
2023-03-27T09:28:16.603Z,78.36
2023-03-27T09:29:20.414Z,78.05
2023-03-27T09:30:16.616Z,77.15
2023-03-27T09:31:16.647Z,77.88
2023-03-27T09:32:16.607Z,78.09
2023-03-27T09:33:16.611Z,77.95
2023-03-27T09:34:16.542Z,77.33
2023-03-27T09:35:16.631Z,76.36
2023-03-27T09:36:16.505Z,77.05
2023-03-27T09:37:17.537Z,77.22
2023-03-27T09:38:16.499Z,75.63
2023-03-27T09:39:16.467Z,74.19
2023-03-27T09:40:16.516Z,73.57
2023-03-27T09:41:16.447Z,72.74
2023-03-27T09:42:16.456Z,72.33
2023-03-27T09:43:16.426Z,73.05
2023-03-27T09:44:16.434Z,73.19
2023-03-27T09:45:16.421Z,72.78
2023-03-27T09:46:16.485Z,73.74
2023-03-27T09:47:16.417Z,75.40
2023-03-27T09:48:16.389Z,74.36
2023-03-27T09:49:16.369Z,74.67
2023-03-27T09:50:16.470Z,73.43
2023-03-27T09:51:16.378Z,71.88
2023-03-27T09:52:16.346Z,70.36
2023-03-27T09:53:16.314Z,72.29
2023-03-27T09:54:16.306Z,71.78
2023-03-27T09:55:16.317Z,69.92
2023-03-27T09:56:16.421Z,69.43
2023-03-27T09:57:16.280Z,69.60
2023-03-27T09:58:16.265Z,70.64
2023-03-27T09:59:16.259Z,70.84
2023-03-27T10:00:16.257Z,70.40
2023-03-27T10:01:16.530Z,70.92
2023-03-27T10:02:16.245Z,71.02
2023-03-27T10:03:16.760Z,71.19
2023-03-27T10:04:16.256Z,71.61
2023-03-27T10:05:16.200Z,72.09
2023-03-27T10:06:16.217Z,71.26
2023-03-27T10:07:16.153Z,70.64
2023-03-27T10:08:16.149Z,69.71
2023-03-27T10:09:16.128Z,69.61
2023-03-27T10:10:16.272Z,71.02
2023-03-27T10:11:16.127Z,70.82
2023-03-27T10:12:16.121Z,70.47
2023-03-27T10:13:16.103Z,69.00
2023-03-27T10:14:16.093Z,70.34
2023-03-27T10:15:16.093Z,68.48
2023-03-27T10:16:16.110Z,69.07
2023-03-27T10:17:16.068Z,69.27
2023-03-27T10:18:16.054Z,68.48
2023-03-27T10:19:16.050Z,69.20
2023-03-27T10:20:16.053Z,68.62
2023-03-27T10:21:16.035Z,67.72
2023-03-27T10:22:16.015Z,67.41
2023-03-27T10:23:15.987Z,67.54
2023-03-27T10:24:15.981Z,67.72
2023-03-27T10:25:15.985Z,66.69
2023-03-27T10:26:15.975Z,67.17
2023-03-27T10:27:15.977Z,66.14
2023-03-27T10:28:15.917Z,66.24
2023-03-27T10:29:15.911Z,66.04
2023-03-27T10:30:15.935Z,67.38
2023-03-27T10:31:15.945Z,66.97
2023-03-27T10:32:15.885Z,67.03
2023-03-27T10:33:15.947Z,66.52
2023-03-27T10:34:15.861Z,66.14
2023-03-27T10:35:15.883Z,66.86
2023-03-27T10:36:15.845Z,66.38
2023-03-27T10:37:15.877Z,66.89
2023-03-27T10:38:15.849Z,67.72
2023-03-27T10:39:15.802Z,67.93
2023-03-27T10:40:15.785Z,67.72
2023-03-27T10:41:15.812Z,67.61
2023-03-27T10:42:16.810Z,68.30
2023-03-27T10:43:15.766Z,67.79
2023-03-27T10:44:15.769Z,67.38
2023-03-27T10:45:15.759Z,67.17
2023-03-27T10:46:15.803Z,68.69
2023-03-27T10:47:15.732Z,66.94
2023-03-27T10:48:15.689Z,67.03
2023-03-27T10:49:17.410Z,66.42
2023-03-27T10:50:15.686Z,66.80
2023-03-27T10:51:15.666Z,66.08
2023-03-27T10:52:15.657Z,65.74
2023-03-27T10:53:15.711Z,64.71
2023-03-27T10:54:15.716Z,65.43
2023-03-27T10:55:15.639Z,64.29
2023-03-27T10:56:15.619Z,64.32
2023-03-27T10:57:15.637Z,63.53
2023-03-27T10:58:15.596Z,63.87
2023-03-27T10:59:15.567Z,64.49
2023-03-27T11:00:15.586Z,63.56
2023-03-27T11:01:15.621Z,63.90
2023-03-27T11:02:15.548Z,64.28
2023-03-27T11:03:15.547Z,63.87
2023-03-27T11:04:15.554Z,63.67
2023-03-27T11:05:15.514Z,63.97
2023-03-27T11:06:15.506Z,62.94
2023-03-27T11:07:16.366Z,63.87
2023-03-27T11:08:15.505Z,63.84
2023-03-27T11:09:15.476Z,63.43
2023-03-27T11:10:15.516Z,62.12
2023-03-27T11:11:15.458Z,62.81
2023-03-27T11:12:15.590Z,63.43
2023-03-27T11:13:15.393Z,63.01
2023-03-27T11:14:15.434Z,62.37
2023-03-27T11:15:15.429Z,64.32
2023-03-27T11:16:15.403Z,62.85
2023-03-27T11:17:15.357Z,62.13
2023-03-27T11:18:15.353Z,61.82
2023-03-27T11:19:15.358Z,63.27
2023-03-27T11:20:15.352Z,63.17
2023-03-27T11:21:15.368Z,62.34
2023-03-27T11:22:15.317Z,62.44
2023-03-27T11:23:15.321Z,61.33
2023-03-27T11:24:15.284Z,62.71
2023-03-27T11:25:15.295Z,62.81
2023-03-27T11:26:15.269Z,63.46
2023-03-27T11:27:15.294Z,64.80
2023-03-27T11:28:15.228Z,64.83
2023-03-27T11:29:15.258Z,67.96
2023-03-27T11:30:15.230Z,73.88
2023-03-27T11:31:15.288Z,78.08
2023-03-27T11:32:15.231Z,81.78
2023-03-27T11:33:15.220Z,84.30
2023-03-27T11:34:15.193Z,86.45
2023-03-27T11:35:16.210Z,87.95
2023-03-27T11:36:15.189Z,89.23
2023-03-27T11:37:15.166Z,90.20
2023-03-27T11:38:15.120Z,90.83
2023-03-27T11:39:15.130Z,91.03
2023-03-27T11:40:15.128Z,91.55
2023-03-27T11:41:15.602Z,90.72
2023-03-27T11:42:15.092Z,91.31
2023-03-27T11:43:15.083Z,90.69
2023-03-27T11:44:15.056Z,91.10
2023-03-27T11:45:15.081Z,91.27
2023-03-27T11:46:15.087Z,89.87
2023-03-27T11:47:15.024Z,87.97
2023-03-27T11:48:15.133Z,86.99
2023-03-27T11:49:15.029Z,87.68
2023-03-27T11:50:15.033Z,84.64
2023-03-27T11:51:15.003Z,83.25
2023-03-27T11:52:14.959Z,80.84
2023-03-27T11:53:15.023Z,79.91
2023-03-27T11:54:14.933Z,79.39
2023-03-27T11:55:14.945Z,77.29
2023-03-27T11:56:14.930Z,73.57
2023-03-27T11:57:14.975Z,72.81
2023-03-27T11:58:14.953Z,74.05
2023-03-27T11:59:14.909Z,73.39
2023-03-27T12:00:14.865Z,69.06
2023-03-27T12:01:17.222Z,70.20
2023-03-27T12:02:14.884Z,70.06
2023-03-27T12:03:15.086Z,68.51
2023-03-27T12:04:14.923Z,70.37
2023-03-27T12:05:14.848Z,70.13
2023-03-27T12:06:15.576Z,69.79
2023-03-27T12:07:16.955Z,67.93
2023-03-27T12:08:15.863Z,68.42
2023-03-27T12:09:14.809Z,68.73
2023-03-27T12:10:14.795Z,67.46
2023-03-27T12:11:14.767Z,69.11
2023-03-27T12:12:14.753Z,69.18
2023-03-27T12:13:14.759Z,68.74
2023-03-27T12:14:18.407Z,67.12
2023-03-27T12:15:14.980Z,67.53
2023-03-27T12:16:14.760Z,66.81
2023-03-27T12:17:14.701Z,66.43
2023-03-27T12:18:14.681Z,69.83
2023-03-27T12:19:27.739Z,66.84
2023-03-27T12:20:15.766Z,66.97
2023-03-27T12:21:14.683Z,68.52
2023-03-27T12:23:15.622Z,69.58
2023-03-27T12:24:14.632Z,72.95
2023-03-27T12:25:14.636Z,75.98
2023-03-27T12:26:14.663Z,79.30
2023-03-27T12:27:14.603Z,81.23
2023-03-27T12:28:22.687Z,83.03
2023-03-27T12:29:23.478Z,83.80
2023-03-27T12:30:15.590Z,85.04
2023-03-27T12:31:14.546Z,86.22
2023-03-27T12:32:14.636Z,88.02
2023-03-27T12:33:14.570Z,89.58
2023-03-27T12:34:14.490Z,91.14
2023-03-27T12:35:14.948Z,91.49
2023-03-27T12:36:15.466Z,92.84
2023-03-27T12:37:14.460Z,93.82
2023-03-27T12:38:14.497Z,94.24
2023-03-27T12:39:14.447Z,95.23
2023-03-27T12:40:14.441Z,96.33
2023-03-27T12:41:14.466Z,97.43
2023-03-27T12:42:14.414Z,97.96
2023-03-27T12:43:14.406Z,97.29
2023-03-27T12:44:14.395Z,95.80
2023-03-27T12:45:14.409Z,93.52
2023-03-27T12:46:14.456Z,93.21
2023-03-27T12:47:14.348Z,91.55
2023-03-27T12:48:14.399Z,91.61
2023-03-27T12:49:14.371Z,90.53
2023-03-27T12:50:14.309Z,90.08
2023-03-27T12:51:14.314Z,85.94
2023-03-27T12:52:15.119Z,86.40
2023-03-27T12:53:14.323Z,87.70
2023-03-27T12:54:14.320Z,85.74